Portada
METAR-TAF:

METAR-TAF

Aeropuertos :

Aeropuerto de Valencia

Valencia, España

latitud: 39-30N, longitud: 000-28W, altitud: 69 m

Observación

El informe se hizo hace 31 minutos, a las 22:30 UTC
Viento 6 kt del suroeste
Temperatura 18°C
Humedad 42%
Presión 1017 hPa
Visibilidad 10 km o más
sin nubes por debajo de 1500 m y sin presencia de cumulonimbus.

METAR: LEVC 162230Z 23006KT CAVOK 18/05 Q1017 NOSIG

Hora: 01:01 (23:01 UTC)

Pronóstico

El informe se hizo hace 6 horas y 1 minutos, a las 17:00 UTC
Pronóstico válido del 16 a las 18 UTC al 17 a las 18 UTC
Viento 10 kt del sur-suroeste
Visibilidad 10 km o más
Escasas nubes a una altura de 3000 ft
Evolucionando progresivamente
del 16 a las 18 UTC al 16 a las 20 UTC
Viento 6 kt del oeste

TAF: LEVC 161700Z 1618/1718 20010KT 9999 FEW030 TX30/1712Z TN14/1706Z BECMG 1618/1620 28006KT

Observaciones y pronósticos meteorológicos de más de 4000 aeropuertos (mensajes METAR y TAF).

Los puntos amarillos y rojos representan las estaciones disponibles.

Ponga el ratón en el punto deseado para ver el nombre de la estación.

Haga clic para ver las observaciones y los pronósticos meteorológicos.

Para cambiar el mapa : haga clic en los botones verdes con una cruz de color negro para hacer un zoom, en el botón verde con un guión para alejar o en las flechas verdes para mapas adyacentes.


METAR-TAF: